Time;durP1;ratioP1;P1;durP2;ratioP2;P2;SDS_P1;SDS_P2;PMS_P1;PMS_P2;Temp;Humidity;BMP_temperature;BMP_pressure;BME280_temperature;BME280_humidity;BME280_pressure;Samples;Min_cycle;Max_cycle;Signal;HPM_P1;HPM_P2
2021/09/01 02:18:20;;;;;;;;;;;;;;;4.66;92.53;100527.31;5723249;23;20376;-86
2021/09/01 02:20:45;;;;;;;;;;;;;;;4.71;92.73;100515.03;4961483;28;19926;-87
2021/09/01 02:23:11;;;;;;;;;;;;;;;4.68;93.46;100523.81;4962833;28;19944;-86
2021/09/01 02:25:36;;;;;;;;;;;;;;;4.67;93.48;100522.03;4963488;28;20362;-87
2021/09/01 02:28:01;;;;;;;;;;;;;;;4.72;93.46;100516.78;4962986;28;19922;-86
2021/09/01 02:30:26;;;;;;;;;;;;;;;4.77;93.02;100511.47;4964426;28;19922;-86
2021/09/01 02:32:51;;;;;;;;;;;;;;;4.73;93.20;100518.53;4962544;28;19926;-87
2021/09/01 02:35:17;;;;;;;;;;;;;;;5.12;99.67;100519.06;4964071;28;20009;-89
2021/09/01 02:37:42;;;;;;;;;;;;;;;5.34;100.00;100524.16;4979434;28;19922;-89
2021/09/01 02:40:08;;;;;;;;;;;;;;;5.48;100.00;100524.88;4964006;28;19918;-91
2021/09/01 02:42:35;;;;;;;;;;;;;;;5.38;100.00;100525.88;4962547;28;19918;-91
2021/09/01 02:45:01;;;;;;;;;;;;;;;5.32;100.00;100521.53;4963327;28;19925;-93
2021/09/01 02:47:26;;;;;;;;;;;;;;;5.27;100.00;100528.59;4961518;28;19918;-91
2021/09/01 02:49:52;;;;;;;;;;;;;;;5.74;100.00;100526.34;4961960;28;19991;-91
2021/09/01 02:52:17;;;;;;;;;;;;;;;6.23;100.00;100524.94;4962067;28;19927;-87
2021/09/01 02:54:42;;;;;;;;;;;;;;;6.21;100.00;100531.94;4963062;28;19958;-87
2021/09/01 02:57:08;;;;;;;;;;;;;;;5.97;100.00;100529.63;4962233;28;20393;-87
2021/09/01 02:59:33;;;;;;;;;;;;;;;5.85;100.00;100528.88;4962265;28;19965;-89
2021/09/01 03:01:58;;;;;;;;;;;;;;;5.68;100.00;100534.31;4961919;28;19918;-88
2021/09/01 03:04:23;;;;;;;;;;;;;;;5.50;100.00;100535.38;4962629;28;20305;-87
2021/09/01 03:06:49;;;;;;;;;;;;;;;5.38;100.00;100539.00;4961934;28;19922;-87
2021/09/01 03:09:14;;;;;;;;;;;;;;;5.34;100.00;100539.91;4962558;28;20287;-87
2021/09/01 03:11:39;;;;;;;;;;;;;;;5.32;100.00;100539.06;4962185;28;19928;-87
2021/09/01 03:14:05;;;;;;;;;;;;;;;5.22;100.00;100543.53;4962443;28;19924;-87
2021/09/01 03:16:30;;;;;;;;;;;;;;;5.20;100.00;100545.28;4963607;28;19957;-86
2021/09/01 03:18:55;;;;;;;;;;;;;;;5.17;100.00;100540.06;4966246;28;19929;-88
2021/09/01 03:21:20;;;;;;;;;;;;;;;5.15;100.00;100540.06;4965174;28;19922;-88
2021/09/01 03:23:46;;;;;;;;;;;;;;;5.06;100.00;100541.03;4964702;28;19918;-88
2021/09/01 08:05:41;;;;;;;;;;;;;;;5.43;97.82;100637.09;5033714;23;19980;-90
2021/09/01 08:08:07;;;;;;;;;;;;;;;5.38;97.68;100642.38;4959495;28;19926;-90
2021/09/01 08:10:32;;;;;;;;;;;;;;;5.43;97.26;100637.09;4959183;28;19925;-91
2021/09/01 08:13:00;;;;;;;;;;;;;;;5.44;97.63;100637.06;4956168;28;19918;-91
2021/09/01 08:15:26;;;;;;;;;;;;;;;5.49;97.37;100628.25;4959085;28;19961;-90
2021/09/01 08:17:56;;;;;;;;;;;;;;;5.52;97.77;100637.00;4958380;28;19965;-89
2021/09/01 08:20:21;;;;;;;;;;;;;;;5.43;97.81;100629.19;4957758;28;19922;-90
2021/09/01 08:22:47;;;;;;;;;;;;;;;5.46;97.95;100642.31;4959617;28;19928;-90
2021/09/01 08:25:12;;;;;;;;;;;;;;;5.49;97.94;100642.28;4959998;28;19922;-91
2021/09/01 08:27:37;;;;;;;;;;;;;;;5.46;98.14;100637.06;4976524;28;19918;-91
2021/09/01 08:30:04;;;;;;;;;;;;;;;5.56;97.87;100643.97;4976672;28;19930;-90
2021/09/01 08:32:29;;;;;;;;;;;;;;;5.56;98.16;100648.38;4959064;28;19929;-90
2021/09/01 08:34:55;;;;;;;;;;;;;;;5.49;98.19;100642.28;4957444;28;19926;-91
2021/09/01 08:37:20;;;;;;;;;;;;;;;5.49;98.12;100644.03;4959156;28;19929;-90
2021/09/01 08:39:46;;;;;;;;;;;;;;;5.53;97.48;100644.00;4958816;28;19922;-90
2021/09/01 08:42:11;;;;;;;;;;;;;;;5.55;97.44;100641.34;4958129;28;19926;-91
2021/09/01 08:44:37;;;;;;;;;;;;;;;5.60;98.01;100645.69;4958632;28;19929;-88
2021/09/01 08:47:02;;;;;;;;;;;;;;;5.63;97.72;100645.69;4958199;28;19947;-91
2021/09/01 08:49:29;;;;;;;;;;;;;;;5.62;97.94;100643.91;4974623;28;19918;-91
2021/09/01 08:51:54;;;;;;;;;;;;;;;5.64;98.12;100636.88;4958718;28;19929;-88
2021/09/01 08:54:20;;;;;;;;;;;;;;;5.64;97.86;100641.28;4975612;28;19918;-91
2021/09/01 08:56:45;;;;;;;;;;;;;;;5.66;98.49;100638.63;4958472;28;20369;-90
2021/09/01 08:59:11;;;;;;;;;;;;;;;5.70;97.96;100635.09;4958528;28;20334;-88
2021/09/01 09:01:40;;;;;;;;;;;;;;;5.68;98.04;100636.84;4975696;28;19918;-89
2021/09/01 09:04:06;;;;;;;;;;;;;;;5.70;98.35;100630.72;4956255;28;20293;-88
2021/09/01 09:06:43;;;;;;;;;;;;;;;5.67;98.67;100630.75;4974600;28;19997;-89
2021/09/01 09:09:09;;;;;;;;;;;;;;;5.73;98.18;100622.78;4975918;28;19926;-90
2021/09/01 09:11:35;;;;;;;;;;;;;;;5.75;98.64;100628.03;4959183;28;19940;-91
2021/09/01 09:14:14;;;;;;;;;;;;;;;5.79;98.68;100624.47;4958865;28;20020;-89
2021/09/01 09:16:39;;;;;;;;;;;;;;;5.80;99.03;100618.34;4958432;28;19926;-90
2021/09/01 09:19:04;;;;;;;;;;;;;;;5.82;99.88;100621.81;4957630;28;19918;-90
2021/09/01 09:21:33;;;;;;;;;;;;;;;5.80;99.03;100615.72;4957872;28;19929;-89
2021/09/01 09:23:59;;;;;;;;;;;;;;;5.80;99.09;100615.72;4975084;28;19922;-87
2021/09/01 09:26:24;;;;;;;;;;;;;;;5.83;98.81;100618.31;4974362;28;19972;-92
2021/09/01 09:29:08;;;;;;;;;;;;;;;5.93;99.01;100605.94;4957903;28;19929;-91
2021/09/01 09:31:33;;;;;;;;;;;;;;;5.98;99.00;100617.31;4957895;28;19922;-88
2021/09/01 09:34:25;;;;;;;;;;;;;;;5.98;99.90;100609.41;4956396;28;19922;-90
2021/09/01 09:37:00;;;;;;;;;;;;;;;5.99;99.67;100611.16;4971453;28;20021;-91
2021/09/01 09:39:39;;;;;;;;;;;;;;;6.43;100.00;100611.50;4956999;28;20365;-89
2021/09/01 09:42:05;;;;;;;;;;;;;;;7.04;100.00;100610.66;4974597;28;19918;-87
2021/09/01 09:44:30;;;;;;;;;;;;;;;7.14;100.00;100603.50;4956771;28;20061;-87
2021/09/01 09:46:55;;;;;;;;;;;;;;;7.39;100.00;100603.97;4956526;28;20005;-85
2021/09/01 09:49:26;;;;;;;;;;;;;;;7.51;100.00;100597.59;4973177;28;20377;-86
2021/09/01 09:51:52;;;;;;;;;;;;;;;7.61;100.00;100596.56;4956947;28;19969;-85
2021/09/01 09:54:18;;;;;;;;;;;;;;;7.70;100.00;100590.25;4956912;28;19925;-86
2021/09/01 09:56:45;;;;;;;;;;;;;;;7.36;100.00;100590.84;4974253;28;20017;-86
2021/09/01 09:59:14;;;;;;;;;;;;;;;7.14;100.00;100592.94;4974326;28;19961;-87
2021/09/01 10:01:39;;;;;;;;;;;;;;;7.12;100.00;100599.16;4956333;28;19969;-86
2021/09/01 10:04:05;;;;;;;;;;;;;;;7.04;100.00;100599.28;4955408;28;19922;-86
2021/09/01 10:06:30;;;;;;;;;;;;;;;6.98;100.00;100600.22;4974068;28;19933;-90
2021/09/01 10:08:57;;;;;;;;;;;;;;;6.95;100.00;100594.13;4973875;28;20365;-86
2021/09/01 10:11:23;;;;;;;;;;;;;;;6.86;100.00;100590.75;4974083;28;19918;-88
2021/09/01 10:13:49;;;;;;;;;;;;;;;6.92;100.00;100592.41;4955658;28;19918;-88
2021/09/01 10:16:21;;;;;;;;;;;;;;;6.94;100.00;100589.75;4973856;28;19924;-87
2021/09/01 10:19:08;;;;;;;;;;;;;;;6.99;100.00;100583.53;4955481;28;20336;-88
2021/09/01 10:21:34;;;;;;;;;;;;;;;6.80;100.00;100580.31;4956043;28;19973;-88
2021/09/01 10:24:18;;;;;;;;;;;;;;;6.72;100.00;100579.53;4973091;28;19973;-87
2021/09/01 10:27:04;;;;;;;;;;;;;;;6.73;100.00;100579.53;4956515;28;19926;-87
2021/09/01 10:29:48;;;;;;;;;;;;;;;6.81;100.00;100578.53;4955729;28;19918;-87
2021/09/01 10:32:29;;;;;;;;;;;;;;;6.82;100.00;100575.00;4956338;28;20009;-88
2021/09/01 10:35:10;;;;;;;;;;;;;;;6.90;100.00;100581.03;4954897;28;20397;-89
2021/09/01 10:37:37;;;;;;;;;;;;;;;6.82;100.00;100588.19;4956199;28;20321;-89
2021/09/01 10:40:02;;;;;;;;;;;;;;;6.85;100.00;100582.88;4956343;28;19973;-88
2021/09/01 10:42:44;;;;;;;;;;;;;;;6.77;100.00;100582.13;4956331;28;19972;-89
2021/09/01 10:45:33;;;;;;;;;;;;;;;6.75;100.00;100575.97;4973161;28;19929;-86
2021/09/01 10:47:58;;;;;;;;;;;;;;;6.77;100.00;100576.84;4960573;28;19918;-86
2021/09/01 10:50:30;;;;;;;;;;;;;;;6.73;100.00;100576.88;4972205;28;19973;-88
2021/09/01 10:52:55;;;;;;;;;;;;;;;6.83;100.00;100582.00;4955766;28;19925;-86
2021/09/01 10:55:20;;;;;;;;;;;;;;;6.75;100.00;100571.59;4955920;28;19918;-87
2021/09/01 10:58:05;;;;;;;;;;;;;;;6.85;100.00;100577.59;4973150;28;19922;-90
2021/09/01 11:00:40;;;;;;;;;;;;;;;6.82;100.00;100569.75;4956043;28;20294;-87
2021/09/01 11:03:05;;;;;;;;;;;;;;;6.91;100.00;100578.38;4971659;28;20016;-90
2021/09/01 11:05:31;;;;;;;;;;;;;;;6.85;100.00;100573.19;4954832;28;20061;-88
2021/09/01 11:07:56;;;;;;;;;;;;;;;6.75;100.00;100575.97;4955783;28;19918;-88
2021/09/01 11:10:22;;;;;;;;;;;;;;;6.74;100.00;100577.75;4955864;28;19945;-91
2021/09/01 11:12:55;;;;;;;;;;;;;;;6.85;100.00;100573.19;4956222;28;19930;-92
2021/09/01 11:15:20;;;;;;;;;;;;;;;6.97;100.00;100566.00;4955902;28;19919;-92
2021/09/01 11:17:46;;;;;;;;;;;;;;;6.91;100.00;100572.25;4956340;28;19922;-90
2021/09/01 11:20:11;;;;;;;;;;;;;;;7.03;100.00;100577.28;4954405;28;19918;-89
2021/09/01 11:22:37;;;;;;;;;;;;;;;7.14;100.00;100573.63;4955976;28;19933;-88
2021/09/01 11:25:07;;;;;;;;;;;;;;;7.01;100.00;100568.56;4955904;28;19973;-92
2021/09/01 11:27:33;;;;;;;;;;;;;;;6.91;100.00;100572.25;4955995;28;19928;-91
2021/09/01 11:30:10;;;;;;;;;;;;;;;6.84;100.00;100565.31;4955817;28;20417;-89
2021/09/01 11:32:36;;;;;;;;;;;;;;;6.84;100.00;100566.16;4956036;28;20270;-90
2021/09/01 11:35:04;;;;;;;;;;;;;;;6.84;100.00;100560.03;4954042;28;19924;-91
2021/09/01 11:37:29;;;;;;;;;;;;;;;6.88;100.00;100562.59;4956257;28;19928;-90
2021/09/01 11:39:55;;;;;;;;;;;;;;;6.85;100.00;100564.44;4955796;28;20441;-93
2021/09/01 11:42:20;;;;;;;;;;;;;;;6.88;100.00;100567.88;4972784;28;20288;-88
2021/09/01 11:45:04;;;;;;;;;;;;;;;6.77;100.00;100566.31;4955958;28;19969;-91
2021/09/01 11:47:29;;;;;;;;;;;;;;;6.79;100.00;100575.06;4956272;28;19919;-90
2021/09/01 11:49:55;;;;;;;;;;;;;;;6.77;100.00;100567.16;4972999;28;19922;-90
2021/09/01 11:52:26;;;;;;;;;;;;;;;6.77;100.00;100568.94;4956527;28;20009;-90
2021/09/01 11:54:52;;;;;;;;;;;;;;;6.84;100.00;100566.16;4956440;28;19922;-89
2021/09/01 11:57:23;;;;;;;;;;;;;;;6.76;100.00;100560.16;4957285;28;20535;-91
2021/09/01 11:59:49;;;;;;;;;;;;;;;6.81;100.00;100568.88;4956764;28;20013;-93
2021/09/01 12:02:20;;;;;;;;;;;;;;;6.78;100.00;100562.75;4956760;28;19966;-91
2021/09/01 12:04:45;;;;;;;;;;;;;;;6.76;100.00;100557.50;4956394;28;20324;-91
2021/09/01 12:07:11;;;;;;;;;;;;;;;6.79;100.00;100556.63;4957689;28;20008;-91
2021/09/01 12:09:37;;;;;;;;;;;;;;;6.87;100.00;100555.59;4958893;28;19968;-92
2021/09/01 12:12:03;;;;;;;;;;;;;;;6.85;100.00;100562.66;4960073;28;19922;-90
2021/09/01 12:14:30;;;;;;;;;;;;;;;6.79;100.00;100552.19;4960547;28;20085;-91
2021/09/01 12:17:14;;;;;;;;;;;;;;;6.86;100.00;100559.13;4960769;28;19921;-92
2021/09/01 12:19:50;;;;;;;;;;;;;;;6.76;100.00;100549.63;4975048;28;20293;-90
2021/09/01 12:22:34;;;;;;;;;;;;;;;6.68;100.00;100547.09;4957966;28;19929;-90
2021/09/01 12:25:00;;;;;;;;;;;;;;;6.80;100.00;100551.31;4959989;28;19926;-89
2021/09/01 12:27:26;;;;;;;;;;;;;;;6.93;100.00;100544.09;4959632;28;19922;-93
2021/09/01 12:29:51;;;;;;;;;;;;;;;6.89;100.00;100552.94;4960015;28;19926;-90
2021/09/01 12:32:16;;;;;;;;;;;;;;;6.86;100.00;100542.44;4977187;28;19946;-92
2021/09/01 12:34:43;;;;;;;;;;;;;;;6.80;100.00;100537.28;4976246;28;20274;-89
2021/09/01 12:37:13;;;;;;;;;;;;;;;6.80;100.00;100542.56;4959972;28;20285;-90
2021/09/01 12:39:42;;;;;;;;;;;;;;;6.80;100.00;100543.41;4959889;28;19925;-90
2021/09/01 12:42:17;;;;;;;;;;;;;;;6.79;100.00;100531.13;4959687;28;19940;-90
2021/09/01 12:44:47;;;;;;;;;;;;;;;6.89;100.00;100540.66;4960032;28;19926;-93
2021/09/01 12:47:12;;;;;;;;;;;;;;;6.95;100.00;100542.28;4973251;28;19922;-93
2021/09/01 12:49:42;;;;;;;;;;;;;;;6.78;100.00;100533.78;4958656;28;19929;-91
2021/09/01 12:52:07;;;;;;;;;;;;;;;6.88;100.00;100535.41;4959959;28;19922;-89
2021/09/01 12:54:33;;;;;;;;;;;;;;;6.79;100.00;100525.00;4958645;28;19928;-89
2021/09/01 12:56:58;;;;;;;;;;;;;;;6.78;100.00;100525.88;4959019;28;20393;-90
2021/09/01 12:59:23;;;;;;;;;;;;;;;6.80;100.00;100526.75;4959803;28;20005;-90
2021/09/01 13:01:48;;;;;;;;;;;;;;;6.86;100.00;100521.38;4959452;28;19925;-90
2021/09/01 13:04:14;;;;;;;;;;;;;;;6.92;100.00;100521.25;4959182;28;20005;-93
2021/09/01 13:06:39;;;;;;;;;;;;;;;6.80;100.00;100522.34;4959413;28;19926;-94
2021/09/01 13:09:04;;;;;;;;;;;;;;;6.68;100.00;100512.84;4959251;28;19918;-91
2021/09/01 13:11:31;;;;;;;;;;;;;;;6.72;100.00;100517.19;4959003;28;19929;-90
2021/09/01 13:13:57;;;;;;;;;;;;;;;6.83;100.00;100526.69;4958659;28;19929;-92
2021/09/01 13:16:22;;;;;;;;;;;;;;;6.95;100.00;100520.38;4959012;28;20290;-90
2021/09/01 13:18:48;;;;;;;;;;;;;;;6.92;100.00;100521.25;4958220;28;19926;-91
2021/09/01 13:21:13;;;;;;;;;;;;;;;6.87;100.00;100523.97;4957114;28;19922;-93
2021/09/01 13:23:38;;;;;;;;;;;;;;;7.14;100.00;100523.56;4958122;28;19925;-90
2021/09/01 13:26:04;;;;;;;;;;;;;;;7.05;100.00;100512.28;4958231;28;20457;-91
2021/09/01 13:28:29;;;;;;;;;;;;;;;7.11;100.00;100513.94;4958383;28;19929;-89
2021/09/01 13:30:54;;;;;;;;;;;;;;;7.14;100.00;100510.38;4959508;28;19918;-88
2021/09/01 13:33:20;;;;;;;;;;;;;;;7.11;100.00;100515.72;4958581;28;19989;-92
2021/09/01 13:35:45;;;;;;;;;;;;;;;7.01;100.00;100505.31;4958544;28;19918;-90
2021/09/01 13:38:10;;;;;;;;;;;;;;;6.96;100.00;100508.94;4958681;28;20277;-90
2021/09/01 13:40:37;;;;;;;;;;;;;;;6.89;99.90;100516.94;4958804;28;19926;-90
2021/09/01 13:43:03;;;;;;;;;;;;;;;6.89;100.00;100513.41;4958702;28;19929;-92
2021/09/01 13:45:28;;;;;;;;;;;;;;;6.95;99.93;100510.69;4958549;28;19918;-90
2021/09/01 13:47:53;;;;;;;;;;;;;;;7.02;100.00;100504.44;4956949;28;20366;-92
2021/09/01 13:50:18;;;;;;;;;;;;;;;6.99;100.00;100501.84;4956561;28;19973;-89
2021/09/01 13:52:44;;;;;;;;;;;;;;;7.00;100.00;100498.28;4957592;28;19972;-89
2021/09/01 13:55:09;;;;;;;;;;;;;;;6.99;99.72;100498.31;4957263;28;20266;-89
2021/09/01 13:57:35;;;;;;;;;;;;;;;7.05;99.55;100496.47;4957808;28;19918;-91
2021/09/01 14:00:05;;;;;;;;;;;;;;;6.98;99.49;100484.28;4957501;28;19919;-92
2021/09/01 14:02:30;;;;;;;;;;;;;;;6.94;99.64;100487.00;4957279;28;19928;-90
2021/09/01 14:04:55;;;;;;;;;;;;;;;7.04;99.55;100486.81;4956185;28;19922;-91
2021/09/01 14:07:21;;;;;;;;;;;;;;;7.04;100.00;100481.53;4957237;28;20005;-92
2021/09/01 14:09:48;;;;;;;;;;;;;;;7.01;100.00;100481.59;4957807;28;19957;-92
2021/09/01 14:12:14;;;;;;;;;;;;;;;7.14;100.00;100481.41;4957407;28;20008;-89
2021/09/01 14:14:39;;;;;;;;;;;;;;;7.13;100.00;100482.28;4974643;28;20012;-90
2021/09/01 14:17:04;;;;;;;;;;;;;;;7.11;100.00;100478.81;4957597;28;19914;-91
2021/09/01 14:19:30;;;;;;;;;;;;;;;7.01;100.00;100486.88;4955900;28;19922;-91
2021/09/01 14:21:56;;;;;;;;;;;;;;;7.06;99.37;100487.66;4957132;28;19978;-90
2021/09/01 14:24:21;;;;;;;;;;;;;;;6.99;99.21;100485.16;4957337;28;20328;-90
2021/09/01 14:26:47;;;;;;;;;;;;;;;6.98;99.03;100473.75;4957174;28;20485;-91
2021/09/01 14:29:12;;;;;;;;;;;;;;;6.94;99.05;100466.81;4956918;28;19922;-90
2021/09/01 14:31:37;;;;;;;;;;;;;;;6.96;99.21;100464.16;4956573;28;20325;-91
2021/09/01 14:34:02;;;;;;;;;;;;;;;6.90;98.61;100465.09;4955754;28;20017;-90
2021/09/01 14:36:30;;;;;;;;;;;;;;;6.92;98.99;100468.56;4956787;28;19918;-91
2021/09/01 14:38:55;;;;;;;;;;;;;;;7.13;99.55;100469.09;4957045;28;19918;-90
2021/09/01 14:41:23;;;;;;;;;;;;;;;7.04;99.71;100468.38;4957050;28;20285;-90
2021/09/01 14:43:49;;;;;;;;;;;;;;;6.99;98.66;100472.84;4956117;28;19925;-91
2021/09/01 14:46:14;;;;;;;;;;;;;;;7.00;98.42;100464.03;4956749;28;20381;-92
2021/09/01 14:48:39;;;;;;;;;;;;;;;6.95;98.74;100468.53;4955933;28;19922;-92
2021/09/01 14:51:05;;;;;;;;;;;;;;;6.99;98.95;100466.69;4956906;28;19972;-91
2021/09/01 14:53:45;;;;;;;;;;;;;;;7.05;98.72;100463.97;4956630;28;20404;-91
2021/09/01 14:56:10;;;;;;;;;;;;;;;7.00;98.66;100457.91;4956581;28;19944;-91
2021/09/01 14:58:36;;;;;;;;;;;;;;;7.02;98.70;100448.19;4956361;28;20369;-92
2021/09/01 15:01:01;;;;;;;;;;;;;;;7.07;99.19;100441.97;4956759;28;19921;-91
2021/09/01 15:03:26;;;;;;;;;;;;;;;7.14;100.00;100453.25;4955467;28;19918;-93
2021/09/01 15:05:53;;;;;;;;;;;;;;;7.03;99.16;100444.69;4956109;28;19981;-89
2021/09/01 15:08:32;;;;;;;;;;;;;;;;;;;;;
2021/09/01 15:11:09;;;;;;;;;;;;;;;7.06;99.80;100445.50;4973604;28;20263;-89
2021/09/01 15:13:34;;;;;;;;;;;;;;;6.98;99.25;100441.28;4956190;28;19918;-90
2021/09/01 15:16:00;;;;;;;;;;;;;;;7.03;99.05;100440.28;4956694;28;19918;-91
2021/09/01 15:18:25;;;;;;;;;;;;;;;7.01;98.41;100426.25;4972096;28;19928;-86
2021/09/01 15:20:51;;;;;;;;;;;;;;;6.98;98.77;100431.59;4954856;28;20009;-88
2021/09/01 15:23:17;;;;;;;;;;;;;;;7.03;99.13;100429.72;4956340;28;20370;-91
2021/09/01 15:25:42;;;;;;;;;;;;;;;7.07;99.08;100428.78;4956315;28;20324;-88
2021/09/01 15:28:07;;;;;;;;;;;;;;;7.06;99.27;100427.03;4956242;28;20369;-89
2021/09/01 15:30:36;;;;;;;;;;;;;;;7.16;99.25;100430.38;4956218;28;19926;-89
2021/09/01 15:33:01;;;;;;;;;;;;;;;7.20;100.00;100424.16;4957506;28;19926;-94
2021/09/01 15:35:26;;;;;;;;;;;;;;;8.28;97.60;100413.09;4973089;28;19926;-90
2021/09/01 15:37:54;;;;;;;;;;;;;;;7.45;99.65;100421.94;4974283;28;20001;-88
2021/09/01 15:40:22;;;;;;;;;;;;;;;7.26;99.86;100416.13;4932560;29;20014;-88
2021/09/01 15:42:48;;;;;;;;;;;;;;;7.23;99.89;100412.69;4895917;29;20628;-93
2021/09/01 15:45:14;;;;;;;;;;;;;;;7.14;99.49;100410.22;4899912;29;19919;-89
2021/09/01 15:47:45;;;;;;;;;;;;;;;7.26;100.00;100412.66;4897921;29;20398;-89
2021/09/01 15:50:10;;;;;;;;;;;;;;;7.14;99.32;100418.16;4898115;29;20390;-91
2021/09/01 15:52:36;;;;;;;;;;;;;;;7.11;99.59;100407.66;4883782;29;20059;-90
2021/09/01 15:55:04;;;;;;;;;;;;;;;7.09;99.77;100413.81;4883803;29;19919;-90
2021/09/01 15:57:30;;;;;;;;;;;;;;;7.04;99.11;100401.63;4899162;29;19920;-89
2021/09/01 15:59:57;;;;;;;;;;;;;;;6.99;99.22;100406.09;4898921;29;19923;-93
2021/09/01 16:02:23;;;;;;;;;;;;;;;7.01;99.31;100399.91;4883006;29;20075;-92
2021/09/01 16:04:55;;;;;;;;;;;;;;;6.97;98.86;100397.34;4881458;29;21034;-93
2021/09/01 16:07:20;;;;;;;;;;;;;;;7.03;99.21;100398.09;4902286;29;20294;-93
2021/09/01 16:09:46;;;;;;;;;;;;;;;6.97;98.79;100403.50;4936523;29;19925;-93
2021/09/01 16:12:12;;;;;;;;;;;;;;;6.96;98.70;100406.19;4952648;29;19923;-90
2021/09/01 16:14:41;;;;;;;;;;;;;;;6.97;98.52;100405.25;4956871;29;19953;-92
2021/09/01 16:17:28;;;;;;;;;;;;;;;6.94;98.20;100402.69;4957124;29;19922;-93
2021/09/01 16:19:55;;;;;;;;;;;;;;;6.95;99.21;100402.66;4956220;29;19925;-93
2021/09/01 16:22:29;;;;;;;;;;;;;;;7.01;98.88;100406.97;4956999;29;20009;-90
2021/09/01 16:24:57;;;;;;;;;;;;;;;7.09;99.30;100403.28;4955676;29;19929;-89
2021/09/01 16:27:24;;;;;;;;;;;;;;;6.97;98.75;100411.38;4956711;29;20486;-88
2021/09/01 16:29:50;;;;;;;;;;;;;;;7.07;99.62;100405.06;4956770;29;20059;-91
2021/09/01 16:32:15;;;;;;;;;;;;;;;7.02;99.58;100406.94;4956131;29;19956;-89
2021/09/01 16:34:41;;;;;;;;;;;;;;;7.18;99.90;100404.88;4954853;29;19926;-91
2021/09/01 16:37:07;;;;;;;;;;;;;;;7.15;99.70;100401.41;4956509;29;20394;-90
2021/09/01 16:39:33;;;;;;;;;;;;;;;7.02;99.27;100400.78;4955951;29;19925;-89
2021/09/01 16:41:58;;;;;;;;;;;;;;;7.08;99.35;100401.56;4956699;29;19923;-93
2021/09/01 16:44:25;;;;;;;;;;;;;;;7.00;98.90;100395.53;4956067;29;19973;-94
2021/09/01 16:46:50;;;;;;;;;;;;;;;7.02;98.75;100400.78;4956473;29;19926;-93
2021/09/01 16:49:17;;;;;;;;;;;;;;;7.06;98.81;100400.69;4955392;29;19922;-87
2021/09/01 16:51:45;;;;;;;;;;;;;;;6.98;99.15;100399.97;4955699;29;19930;-90
2021/09/01 16:54:23;;;;;;;;;;;;;;;6.97;98.88;100408.75;4956515;28;20397;-90
2021/09/01 16:56:54;;;;;;;;;;;;;;;7.03;98.63;100400.75;4955212;29;20497;-93
2021/09/01 16:59:25;;;;;;;;;;;;;;;7.04;98.56;100405.13;4957008;28;19922;-93
2021/09/01 17:01:52;;;;;;;;;;;;;;;6.98;98.40;100401.75;4955761;29;19949;-93
2021/09/01 17:04:18;;;;;;;;;;;;;;;6.92;98.99;100400.06;4955040;29;19922;-93
2021/09/01 17:06:44;;;;;;;;;;;;;;;6.98;98.75;100404.38;4956611;28;19922;-94
2021/09/01 17:09:11;;;;;;;;;;;;;;;6.99;98.68;100411.38;4955098;29;19922;-93
2021/09/01 17:11:37;;;;;;;;;;;;;;;6.93;98.85;100415.00;4956275;29;20005;-92
2021/09/01 17:14:02;;;;;;;;;;;;;;;7.01;98.95;100409.59;4955696;29;19927;-91
2021/09/01 17:16:29;;;;;;;;;;;;;;;7.00;98.58;100407.84;4955474;29;20330;-94
2021/09/01 17:18:55;;;;;;;;;;;;;;;7.05;98.80;100409.50;4955753;29;20298;-89
2021/09/01 17:21:22;;;;;;;;;;;;;;;7.04;98.77;100409.53;4956822;28;19918;-93
2021/09/01 17:23:47;;;;;;;;;;;;;;;6.99;98.52;100412.25;4955995;29;20486;-89
2021/09/01 17:26:16;;;;;;;;;;;;;;;7.04;98.86;100418.31;4956010;29;19927;-89
2021/09/01 17:29:01;;;;;;;;;;;;;;;6.95;98.45;100409.69;4954307;29;20188;-93
2021/09/01 17:31:28;;;;;;;;;;;;;;;7.05;99.00;100417.41;4955579;29;20400;-93
2021/09/01 17:33:54;;;;;;;;;;;;;;;7.07;98.84;100417.41;4955076;29;19954;-95
2021/09/01 17:36:20;;;;;;;;;;;;;;;7.27;100.00;100417.00;4955891;29;19965;-93
2021/09/01 17:38:47;;;;;;;;;;;;;;;7.07;98.89;100417.41;4955354;29;19946;-89
2021/09/01 17:41:16;;;;;;;;;;;;;;;7.11;98.96;100423.47;4955680;29;19989;-92
2021/09/01 17:43:41;;;;;;;;;;;;;;;7.10;98.98;100406.78;4955721;29;19958;-88
2021/09/01 17:46:07;;;;;;;;;;;;;;;7.05;98.99;100416.53;4955305;29;19962;-93
2021/09/01 17:48:33;;;;;;;;;;;;;;;7.05;99.03;100412.16;4954122;29;19977;-92
2021/09/01 17:50:59;;;;;;;;;;;;;;;7.07;98.48;100409.50;4954582;29;19942;-91
2021/09/01 17:53:24;;;;;;;;;;;;;;;11.02;100.00;100402.56;4954873;29;19926;-83
2021/09/01 17:55:50;;;;;;;;;;;;;;;8.86;94.90;100406.41;4955439;29;19921;-94
2021/09/01 17:58:15;;;;;;;;;;;;;;;7.77;99.86;100411.59;4954814;29;20401;-93
2021/09/01 18:00:41;;;;;;;;;;;;;;;7.43;99.84;100413.16;4955191;29;19969;-94
2021/09/01 18:03:06;;;;;;;;;;;;;;;7.36;99.62;100422.09;4953949;29;20009;-88
2021/09/01 18:05:31;;;;;;;;;;;;;;;7.31;99.09;100413.41;4954240;28;19968;-89
2021/09/01 18:07:57;;;;;;;;;;;;;;;7.23;98.60;100412.69;4955462;29;20985;-95
2021/09/01 18:10:22;;;;;;;;;;;;;;;7.22;98.52;100418.84;4956528;29;20278;-89
2021/09/01 18:12:47;;;;;;;;;;;;;;;7.18;98.58;100415.41;4954870;29;20290;-87
2021/09/01 18:15:13;;;;;;;;;;;;;;;7.15;98.34;100417.22;4949145;29;20397;-88
2021/09/01 18:17:40;;;;;;;;;;;;;;;7.16;98.21;100424.25;4955187;29;19925;-94
2021/09/01 18:20:05;;;;;;;;;;;;;;;7.13;98.61;100426.94;4953320;29;19918;-89
2021/09/01 18:22:34;;;;;;;;;;;;;;;7.10;98.84;100425.25;4954273;29;19925;-92
2021/09/01 18:24:59;;;;;;;;;;;;;;;7.16;98.16;100421.59;4955005;29;19922;-91
2021/09/01 18:27:25;;;;;;;;;;;;;;;7.14;99.04;100426.06;4954497;29;19946;-90
2021/09/01 18:29:51;;;;;;;;;;;;;;;7.17;98.55;100423.34;4954202;29;19925;-92
2021/09/01 18:32:17;;;;;;;;;;;;;;;7.13;98.09;100422.53;4954969;29;19926;-93
2021/09/01 18:34:42;;;;;;;;;;;;;;;7.06;98.47;100429.69;4952317;29;19957;-93
2021/09/01 18:37:07;;;;;;;;;;;;;;;7.11;98.31;100437.50;4954660;29;20386;-91
2021/09/01 18:39:33;;;;;;;;;;;;;;;7.09;98.06;100439.31;4954805;29;19918;-93
2021/09/01 18:42:05;;;;;;;;;;;;;;;7.09;97.99;100439.31;4954884;29;20009;-93
2021/09/01 18:44:36;;;;;;;;;;;;;;;7.08;98.15;100438.44;4954157;29;20354;-93
2021/09/01 18:47:01;;;;;;;;;;;;;;;7.02;98.47;100438.56;4955513;28;19923;-92
2021/09/01 18:49:26;;;;;;;;;;;;;;;7.02;97.93;100449.09;4953661;29;19918;-88
2021/09/01 18:51:54;;;;;;;;;;;;;;;7.02;98.19;100451.72;4954632;29;19927;-89
2021/09/01 18:54:20;;;;;;;;;;;;;;;7.03;98.44;100457.84;4954413;29;19974;-92
2021/09/01 18:56:46;;;;;;;;;;;;;;;7.01;98.01;100459.66;4954155;29;19946;-91
2021/09/01 18:59:11;;;;;;;;;;;;;;;7.05;98.20;100459.59;4953782;29;20025;-88
2021/09/01 19:01:37;;;;;;;;;;;;;;;7.00;98.07;100466.66;4954048;29;20135;-88
2021/09/01 19:04:03;;;;;;;;;;;;;;;7.04;98.00;100465.72;4952104;29;19934;-86
2021/09/01 19:06:41;;;;;;;;;;;;;;;7.01;98.05;100460.53;4953395;28;19927;-88
2021/09/01 19:09:10;;;;;;;;;;;;;;;7.00;97.88;100463.19;4954063;29;19965;-88
2021/09/01 19:11:38;;;;;;;;;;;;;;;7.00;98.24;100468.44;4953575;29;20370;-91
2021/09/01 19:14:04;;;;;;;;;;;;;;;7.02;97.58;100469.28;4953302;29;19930;-91
2021/09/01 19:16:30;;;;;;;;;;;;;;;7.03;97.88;100469.25;4954630;28;20388;-88
2021/09/01 19:18:55;;;;;;;;;;;;;;;7.02;98.23;100475.44;4956062;28;19926;-91
2021/09/01 19:21:23;;;;;;;;;;;;;;;7.07;97.85;100484.13;4956977;29;19997;-89
2021/09/01 19:23:53;;;;;;;;;;;;;;;7.07;97.45;100481.50;4958649;28;20267;-94
2021/09/01 19:26:20;;;;;;;;;;;;;;;7.10;97.84;100480.59;4957812;29;19974;-90
2021/09/01 19:28:46;;;;;;;;;;;;;;;7.06;98.14;100471.84;4957519;29;19977;-94
2021/09/01 19:31:12;;;;;;;;;;;;;;;7.12;97.55;100477.94;4959299;28;19972;-93
2021/09/01 19:33:38;;;;;;;;;;;;;;;7.04;97.80;100484.19;4957364;28;20386;-91
2021/09/01 19:36:04;;;;;;;;;;;;;;;7.09;97.80;100482.31;4957386;29;19922;-92
2021/09/01 19:38:30;;;;;;;;;;;;;;;7.07;97.91;100492.03;4956373;29;19923;-93
2021/09/01 19:40:55;;;;;;;;;;;;;;;7.07;97.56;100491.19;4958530;28;19922;-93